Time;durP1;ratioP1;P1;durP2;ratioP2;P2;SDS_P1;SDS_P2;PMS_P1;PMS_P2;Temp;Humidity;BMP_temperature;BMP_pressure;BME280_temperature;BME280_humidity;BME280_pressure;Samples;Min_cycle;Max_cycle;Signal;HPM_P1;HPM_P2
2023/02/15 00:01:50;;;;;;;60.30;33.08;;;;;;;2.34;100.00;100101.38;5089050;28;20123;-91
2023/02/15 00:04:18;;;;;;;55.45;32.70;;;;;;;2.31;100.00;100096.03;5090123;28;20064;-91
2023/02/15 00:06:45;;;;;;;63.47;32.85;;;;;;;2.26;100.00;100093.28;5090289;28;20072;-91
2023/02/15 00:09:11;;;;;;;56.40;30.67;;;;;;;2.28;100.00;100106.44;5090204;28;20032;-91
2023/02/15 00:11:39;;;;;;;57.20;30.42;;;;;;;2.05;100.00;100090.94;5090026;28;20032;-92
2023/02/15 00:14:07;;;;;;;56.83;30.45;;;;;;;2.15;100.00;100106.97;5089928;28;20032;-91
2023/02/15 00:16:33;;;;;;;54.72;32.45;;;;;;;2.00;100.00;100092.53;5088555;28;20214;-90
2023/02/15 00:19:01;;;;;;;58.90;32.75;;;;;;;1.99;100.00;100100.34;5089354;28;20127;-92
2023/02/15 00:21:29;;;;;;;67.80;33.87;;;;;;;1.93;100.00;100093.22;5089099;28;20074;-93
2023/02/15 00:23:55;;;;;;;64.95;34.97;;;;;;;1.98;100.00;100086.38;5087098;28;20046;-90
2023/02/15 00:26:20;;;;;;;56.17;31.73;;;;;;;2.01;100.00;100090.81;5089330;28;20059;-92
2023/02/15 00:28:46;;;;;;;61.25;33.35;;;;;;;1.98;100.00;100086.38;5089286;28;20063;-92
2023/02/15 00:31:12;;;;;;;58.17;30.80;;;;;;;1.91;100.00;100087.03;5087929;28;20856;-92
2023/02/15 00:33:39;;;;;;;62.50;32.38;;;;;;;1.85;100.00;100102.59;5089247;28;20067;-92
2023/02/15 00:36:09;;;;;;;59.40;32.45;;;;;;;1.77;100.00;100098.84;5089514;28;20044;-93
2023/02/15 00:38:36;;;;;;;59.05;32.03;;;;;;;1.69;100.00;100096.00;5088905;28;20044;-91
2023/02/15 00:41:03;;;;;;;53.00;30.65;;;;;;;1.78;100.00;100106.78;5088639;28;20524;-92
2023/02/15 00:43:31;;;;;;;56.47;30.15;;;;;;;1.67;100.00;100097.69;5088217;28;20063;-91
2023/02/15 00:45:58;;;;;;;55.80;30.50;;;;;;;1.73;100.00;100087.38;5086684;28;20047;-90
2023/02/15 00:48:24;;;;;;;48.88;28.63;;;;;;;1.88;100.00;100104.41;5088630;28;20445;-91
2023/02/15 00:50:51;;;;;;;52.50;30.30;;;;;;;1.96;100.00;100102.91;5088868;28;20045;-93
2023/02/15 00:53:19;;;;;;;56.67;29.13;;;;;;;1.90;100.00;100089.59;5089060;28;20398;-90
2023/02/15 00:55:45;;;;;;;55.97;31.73;;;;;;;1.75;100.00;100085.69;5075803;28;20103;-92
2023/02/15 00:58:12;;;;;;;61.65;31.20;;;;;;;1.76;100.00;100081.34;5075858;28;20074;-91
2023/02/15 01:00:38;;;;;;;59.60;30.70;;;;;;;1.78;100.00;100079.66;5074962;28;20045;-92
2023/02/15 01:03:04;;;;;;;54.15;29.35;;;;;;;1.65;100.00;100075.78;5075235;28;20037;-94
2023/02/15 01:05:30;;;;;;;51.58;29.05;;;;;;;1.68;100.00;100085.47;5075364;28;20064;-92
2023/02/15 01:07:56;;;;;;;52.88;28.38;;;;;;;1.49;100.00;100065.66;5076039;28;20047;-95
2023/02/15 01:10:24;;;;;;;52.55;27.70;;;;;;;1.65;100.00;100099.38;5075839;28;20053;-93
2023/02/15 01:12:50;;;;;;;54.78;29.10;;;;;;;1.59;100.00;100088.72;5075418;28;20036;-93
2023/02/15 01:15:16;;;;;;;53.20;28.23;;;;;;;1.57;100.00;100091.28;5074114;28;20117;-92
2023/02/15 01:17:45;;;;;;;53.70;29.58;;;;;;;1.68;100.00;100080.22;5075753;28;20052;-92
2023/02/15 01:20:11;;;;;;;53.55;29.92;;;;;;;1.60;100.00;100069.50;5074670;28;20044;-93
2023/02/15 01:22:38;;;;;;;54.58;29.15;;;;;;;1.51;100.00;100061.38;5075743;28;20123;-92
2023/02/15 01:25:04;;;;;;;58.70;28.35;;;;;;;1.68;100.00;100086.34;5072935;28;20036;-89
2023/02/15 01:27:31;;;;;;;53.30;28.60;;;;;;;1.49;100.00;100070.91;5075157;28;20045;-93
2023/02/15 01:29:57;;;;;;;48.33;27.90;;;;;;;1.48;100.00;100074.41;5074479;28;20112;-94
2023/02/15 01:32:23;;;;;;;50.03;26.15;;;;;;;1.52;100.00;100081.47;5074877;28;20135;-93
2023/02/15 01:34:49;;;;;;;53.13;27.30;;;;;;;1.43;100.00;100068.97;5075201;28;20037;-94
2023/02/15 01:37:15;;;;;;;50.35;27.25;;;;;;;1.36;100.00;100081.00;5075312;28;20044;-93
2023/02/15 01:39:41;;;;;;;53.60;27.13;;;;;;;1.14;100.00;100055.88;5075606;28;20102;-93
2023/02/15 01:42:10;;;;;;;55.70;28.98;;;;;;;1.26;100.00;100084.22;5075367;28;20045;-93
2023/02/15 01:44:50;;;;;;;58.30;29.40;;;;;;;1.18;100.00;100056.88;5073659;28;20037;-92
2023/02/15 01:47:20;;;;;;;54.92;27.60;;;;;;;1.22;100.00;100066.63;5074762;28;20040;-91
2023/02/15 01:49:47;;;;;;;50.92;27.05;;;;;;;1.06;100.00;100044.25;5075237;28;20052;-91
2023/02/15 01:52:16;;;;;;;50.80;28.10;;;;;;;1.14;100.00;100057.63;5074544;28;20040;-93
2023/02/15 01:54:44;;;;;;;59.50;29.17;;;;;;;1.09;100.00;100038.25;5075059;28;20109;-94
2023/02/15 01:57:15;;;;;;;50.90;26.97;;;;;;;1.08;100.00;100039.97;5074919;28;20047;-93
2023/02/15 01:59:45;;;;;;;58.35;29.63;;;;;;;1.13;100.00;100038.41;5073333;28;20064;-93
2023/02/15 02:02:16;;;;;;;56.25;28.52;;;;;;;1.22;100.00;100064.88;5071061;28;20086;-93
2023/02/15 02:04:48;;;;;;;54.20;27.85;;;;;;;1.18;100.00;100060.38;5074409;28;20098;-92
2023/02/15 02:07:19;;;;;;;59.63;31.30;;;;;;;1.06;100.00;100059.09;5072235;28;20045;-92
2023/02/15 02:09:45;;;;;;;58.95;30.63;;;;;;;1.02;100.00;100053.78;5074329;28;20082;-93
2023/02/15 02:12:12;;;;;;;66.25;32.75;;;;;;;0.92;100.00;100038.59;5074668;28;20094;-93
2023/02/15 02:14:40;;;;;;;52.97;28.45;;;;;;;0.96;100.00;100053.56;5074223;28;20049;-91
2023/02/15 02:17:14;;;;;;;60.25;29.98;;;;;;;0.96;100.00;100057.94;5073410;28;20040;-93
2023/02/15 02:20:07;;;;;;;58.67;30.25;;;;;;;0.93;100.00;100052.56;5108246;28;20032;-92
2023/02/15 02:22:59;;;;;;;48.92;27.20;;;;;;;0.77;100.00;100017.16;5073821;28;20040;-92
2023/02/15 02:26:01;;;;;;;51.50;27.75;;;;;;;0.86;100.00;100046.25;5069627;28;20052;-93
2023/02/15 02:28:54;;;;;;;56.05;29.45;;;;;;;0.81;100.00;100037.38;5027453;28;20040;-94
2023/02/15 02:32:04;;;;;;;57.33;28.88;;;;;;;0.78;100.00;100040.78;5073059;28;20048;-92
2023/02/15 02:34:38;;;;;;;50.78;26.75;;;;;;;0.68;100.00;100040.44;5072950;28;20037;-92
2023/02/15 02:37:11;;;;;;;51.42;26.20;;;;;;;0.65;100.00;100049.09;5074039;28;20577;-92
2023/02/15 02:39:49;;;;;;;55.35;26.92;;;;;;;0.61;100.00;100053.31;5074090;28;20043;-93
2023/02/15 02:42:23;;;;;;;48.60;27.00;;;;;;;0.61;100.00;100060.28;5071632;28;20093;-94
2023/02/15 02:44:54;;;;;;;57.45;28.65;;;;;;;0.54;100.00;100053.03;5073670;28;20044;-93
2023/02/15 02:47:24;;;;;;;63.47;31.23;;;;;;;0.36;100.00;100033.25;5072707;28;20119;-93
2023/02/15 02:49:57;;;;;;;59.28;29.98;;;;;;;0.38;100.00;100047.28;5072968;28;20040;-92
2023/02/15 02:52:40;;;;;;;53.78;29.92;;;;;;;0.33;100.00;100038.41;5073253;28;20127;-92
2023/02/15 02:55:09;;;;;;;54.22;29.27;;;;;;;0.32;100.00;100046.19;5073279;28;20036;-94
2023/02/15 02:57:41;;;;;;;51.38;28.75;;;;;;;0.37;100.00;100066.47;5073928;28;20130;-93
2023/02/15 03:00:08;;;;;;;58.35;29.42;;;;;;;0.28;100.00;100053.03;5073433;28;20058;-93
2023/02/15 03:02:39;;;;;;;55.20;28.90;;;;;;;0.23;100.00;100048.50;5073962;28;20036;-92
2023/02/15 03:05:11;;;;;;;57.10;29.88;;;;;;;0.13;100.00;100032.50;5073293;28;20046;-93
2023/02/15 03:07:39;;;;;;;54.58;29.40;;;;;;;0.06;100.00;100026.97;5072117;28;20125;-93
2023/02/15 03:10:08;;;;;;;54.63;28.15;;;;;;;0.02;100.00;100025.97;5073128;28;20044;-93
2023/02/15 03:12:37;;;;;;;52.53;27.17;;;;;;;0.10;100.00;100028.88;5073021;28;20040;-93
2023/02/15 03:15:09;;;;;;;54.33;28.17;;;;;;;0.11;100.00;100033.25;5072971;28;20063;-92
2023/02/15 03:17:41;;;;;;;51.50;26.63;;;;;;;0.24;100.00;100058.13;5072858;28;20117;-93
2023/02/15 03:20:14;;;;;;;48.38;25.55;;;;;;;0.20;100.00;100057.13;5072062;28;20037;-92
2023/02/15 03:22:46;;;;;;;51.50;26.38;;;;;;;0.08;100.00;100041.00;5073041;28;20048;-91
2023/02/15 03:25:15;;;;;;;49.70;26.63;;;;;;;0.04;100.00;100055.69;5074089;28;20083;-93
2023/02/15 03:27:44;;;;;;;49.88;26.17;;;;;;;0.01;100.00;100046.84;5074073;28;20040;-93
2023/02/15 03:30:13;;;;;;;55.53;26.75;;;;;;;0.06;100.00;100047.91;5072393;28;20032;-93
2023/02/15 03:32:40;;;;;;;47.60;26.38;;;;;;;-0.12;100.00;100032.44;5074014;28;20062;-92
2023/02/15 03:35:08;;;;;;;47.95;25.65;;;;;;;-0.09;100.00;100048.25;5072883;28;20090;-93
2023/02/15 03:37:39;;;;;;;52.45;25.50;;;;;;;-0.07;100.00;100068.38;5074263;28;20036;-94
2023/02/15 03:43:15;;;;;;;39.72;19.67;;;;;;;-0.11;100.00;100071.75;5092249;27;20619;-94
2023/02/15 03:45:54;;;;;;;36.65;19.13;;;;;;;-0.12;100.00;100072.56;5090756;28;20048;-93
2023/02/15 03:48:24;;;;;;;27.65;15.65;;;;;;;-0.23;100.00;100051.25;5090924;28;20036;-93
2023/02/15 03:53:54;;;;;;;39.75;19.75;;;;;;;-0.34;100.00;100068.25;5152180;27;20370;-93
2023/02/15 03:56:20;;;;;;;39.05;20.52;;;;;;;-0.41;100.00;100053.19;5128344;27;20043;-92
2023/02/15 04:01:57;;;;;;;38.75;20.40;;;;;;;-0.32;100.00;100068.31;5121042;27;20387;-92
2023/02/15 04:04:28;;;;;;;29.92;17.17;;;;;;;-0.34;100.00;100086.56;5109086;28;20036;-94
2023/02/15 04:06:54;;;;;;;38.00;20.58;;;;;;;-0.52;100.00;100057.09;5121317;28;20040;-90
2023/02/15 04:12:19;;;;;;;27.60;15.30;;;;;;;-0.51;100.00;100065.00;5084918;27;20382;-93
2023/02/15 04:17:45;;;;;;;30.13;17.10;;;;;;;-0.52;100.00;100065.84;5112454;27;20372;-93
2023/02/15 04:26:10;;;;;;;32.45;17.40;;;;;;;-0.57;100.00;100069.09;5161455;27;20353;-92
2023/02/15 04:28:36;;;;;;;40.13;19.15;;;;;;;-0.69;100.00;100048.66;5147483;27;20071;-91
2023/02/15 04:31:02;;;;;;;37.95;19.48;;;;;;;-0.77;100.00;100043.09;5147277;27;20031;-92
2023/02/15 04:33:28;;;;;;;40.60;20.55;;;;;;;-0.75;100.00;100054.50;5147325;27;20050;-92
2023/02/15 04:35:54;;;;;;;35.60;18.13;;;;;;;-0.83;100.00;100055.94;5153020;27;20035;-92
2023/02/15 04:38:19;;;;;;;41.75;18.88;;;;;;;-0.71;100.00;100065.97;5145351;27;20486;-91
2023/02/15 04:40:49;;;;;;;35.83;18.50;;;;;;;-0.89;100.00;100046.16;5142543;27;20546;-92
2023/02/15 04:43:17;;;;;;;39.83;21.42;;;;;;;-0.80;100.00;100050.84;5148424;27;20061;-93
2023/02/15 04:45:48;;;;;;;50.40;22.95;;;;;;;-0.69;100.00;100070.41;5146388;27;20046;-91
2023/02/15 04:48:15;;;;;;;45.95;23.33;;;;;;;-0.79;100.00;100065.66;5153522;27;20495;-92
2023/02/15 04:50:41;;;;;;;45.35;23.13;;;;;;;-0.92;100.00;100048.63;5151847;27;20066;-92
2023/02/15 04:53:06;;;;;;;51.20;23.70;;;;;;;-0.93;100.00;100039.03;5152510;27;20084;-93
2023/02/15 04:55:32;;;;;;;45.25;22.98;;;;;;;-0.98;100.00;100035.31;5143659;27;20553;-91
2023/02/15 04:57:58;;;;;;;48.65;23.90;;;;;;;-0.90;100.00;100043.47;5144237;27;20084;-92
2023/02/15 05:00:25;;;;;;;44.75;21.73;;;;;;;-0.90;100.00;100048.69;5145013;27;20051;-92
2023/02/15 05:02:51;;;;;;;41.38;22.50;;;;;;;-0.91;100.00;100062.56;5137791;27;20050;-91
2023/02/15 05:05:17;;;;;;;44.10;21.38;;;;;;;-0.98;100.00;100044.88;5145305;27;20402;-92
2023/02/15 05:07:43;;;;;;;39.72;21.35;;;;;;;-1.00;100.00;100039.59;5150543;27;20039;-93
2023/02/15 05:10:09;;;;;;;43.67;22.63;;;;;;;-1.01;100.00;100045.66;5144644;27;20035;-92
2023/02/15 05:12:35;;;;;;;40.55;21.70;;;;;;;-1.01;100.00;100036.94;5148251;27;20043;-93
2023/02/15 05:15:01;;;;;;;45.97;22.05;;;;;;;-0.88;100.00;100052.25;5146302;27;20037;-92
2023/02/15 05:17:28;;;;;;;40.40;21.05;;;;;;;-0.95;100.00;100040.69;5148916;27;20036;-91
2023/02/15 05:19:54;;;;;;;47.33;23.83;;;;;;;-0.84;100.00;100046.31;5148645;27;20054;-91
2023/02/15 05:22:20;;;;;;;50.85;23.48;;;;;;;-0.78;100.00;100051.78;5154294;27;20074;-92
2023/02/15 05:30:46;;;;;;;45.45;20.20;;;;;;;-0.35;100.00;100055.13;5133265;27;20381;-92
2023/02/15 05:33:12;;;;;;;33.75;17.75;;;;;;;-0.28;100.00;100031.03;5131472;28;20036;-92
2023/02/15 05:35:38;;;;;;;28.70;14.95;;;;;;;-0.04;100.00;100023.16;5137958;28;20066;-91
2023/02/15 05:38:04;;;;;;;28.35;13.23;;;;;;;0.09;96.92;100003.56;5134691;28;20135;-92
2023/02/15 05:40:30;;;;;;;31.02;15.00;;;;;;;0.12;96.17;100014.13;5143059;28;20484;-91
2023/02/15 05:42:56;;;;;;;45.90;20.33;;;;;;;0.21;96.53;100037.97;5140095;28;20043;-93
2023/02/15 05:45:22;;;;;;;39.67;18.50;;;;;;;0.17;95.99;100039.63;5124600;27;20044;-93
2023/02/15 05:47:49;;;;;;;34.63;18.15;;;;;;;-0.11;98.44;100049.91;5130354;28;20032;-93
2023/02/15 05:50:16;;;;;;;48.42;21.65;;;;;;;-0.34;99.94;100042.13;5122694;27;20051;-92
2023/02/15 05:52:42;;;;;;;41.28;20.02;;;;;;;-0.48;100.00;100051.16;5132072;27;20108;-93
2023/02/15 05:55:09;;;;;;;40.38;19.33;;;;;;;-0.51;100.00;100064.13;5124687;28;20443;-93
2023/02/15 05:57:35;;;;;;;36.85;17.48;;;;;;;-0.67;100.00;100046.97;5124934;28;20065;-93
2023/02/15 06:00:04;;;;;;;36.85;18.85;;;;;;;-0.68;100.00;100072.19;5132170;28;20043;-93
2023/02/15 06:02:33;;;;;;;31.15;15.82;;;;;;;-0.62;100.00;100063.72;5127432;28;20051;-92
2023/02/15 06:05:00;;;;;;;32.10;16.83;;;;;;;-0.36;100.00;100069.03;5124142;28;20040;-91
2023/02/15 06:07:26;;;;;;;30.38;15.50;;;;;;;-0.18;98.23;100071.44;5128083;28;20046;-93
2023/02/15 06:09:52;;;;;;;31.38;17.02;;;;;;;-0.22;96.74;100052.13;5130050;27;20055;-92
2023/02/15 06:12:17;;;;;;;30.38;14.38;;;;;;;-0.09;94.94;100066.53;5125568;28;20044;-93
2023/02/15 06:14:43;;;;;;;26.83;13.95;;;;;;;-0.04;94.63;100063.28;5125629;28;20047;-93
2023/02/15 06:17:09;;;;;;;42.38;18.50;;;;;;;-0.17;95.17;100054.91;5127281;28;20031;-93
2023/02/15 06:19:35;;;;;;;40.53;19.05;;;;;;;-0.21;95.60;100074.84;5134574;28;20065;-94
2023/02/15 06:22:03;;;;;;;33.88;18.33;;;;;;;-0.44;96.01;100060.91;5128075;28;20048;-92
2023/02/15 06:24:29;;;;;;;42.63;18.77;;;;;;;-0.61;96.15;100073.31;5132092;28;20043;-93
2023/02/15 06:26:55;;;;;;;35.05;20.05;;;;;;;-0.86;98.05;100077.59;5122982;28;20073;-93
2023/02/15 06:29:21;;;;;;;35.33;18.45;;;;;;;-0.82;98.90;100099.50;5124337;28;20048;-93
2023/02/15 06:31:46;;;;;;;38.42;20.55;;;;;;;-0.99;99.17;100080.56;5127886;28;20044;-93
2023/02/15 06:34:12;;;;;;;35.00;19.05;;;;;;;-1.04;100.00;100080.38;5119203;28;20046;-94
2023/02/15 06:36:38;;;;;;;43.67;19.10;;;;;;;-0.89;100.00;100102.69;5122877;28;20051;-93
2023/02/15 06:39:06;;;;;;;37.15;19.08;;;;;;;-0.99;100.00;100079.66;5136083;28;20569;-94
2023/02/15 06:41:32;;;;;;;40.05;19.70;;;;;;;-0.98;100.00;100069.25;5122798;28;20124;-95
2023/02/15 06:43:58;;;;;;;44.42;20.15;;;;;;;-0.95;100.00;100081.56;5126691;28;20047;-94
2023/02/15 06:46:24;;;;;;;59.97;20.65;;;;;;;-0.95;100.00;100086.78;5127097;28;20066;-95
2023/02/15 06:48:50;;;;;;;37.17;18.27;;;;;;;-0.96;100.00;100083.25;5126815;28;20063;-95
2023/02/15 06:51:16;;;;;;;50.88;19.73;;;;;;;-0.87;100.00;100087.97;5127846;28;20505;-94
2023/02/15 06:53:42;;;;;;;40.20;20.35;;;;;;;-0.77;100.00;100084.91;5128079;28;20051;-94
2023/02/15 06:56:10;;;;;;;45.05;21.02;;;;;;;-0.55;100.00;100097.06;5125018;28;20036;-93
2023/02/15 06:58:37;;;;;;;45.83;21.50;;;;;;;-0.50;100.00;100084.19;5126709;28;20074;-94
2023/02/15 07:01:03;;;;;;;51.88;22.05;;;;;;;-0.52;100.00;100078.91;5127929;28;20070;-95
2023/02/15 07:03:30;;;;;;;45.40;21.77;;;;;;;-0.46;100.00;100086.97;5126418;28;20043;-94
2023/02/15 07:05:56;;;;;;;49.75;24.17;;;;;;;-0.46;100.00;100073.00;5125748;28;20043;-94
2023/02/15 07:08:23;;;;;;;50.05;24.13;;;;;;;-0.22;100.00;100094.88;5126510;28;20043;-94
2023/02/15 07:10:49;;;;;;;53.22;25.60;;;;;;;-0.11;100.00;100099.59;5125218;28;20069;-95
2023/02/15 07:13:17;;;;;;;55.85;26.80;;;;;;;-0.19;100.00;100067.94;5125365;28;20500;-95
2023/02/15 07:15:43;;;;;;;53.83;26.25;;;;;;;-0.16;100.00;100078.50;5125379;28;20051;-95
2023/02/15 07:18:10;;;;;;;48.90;24.58;;;;;;;-0.10;100.00;100072.63;5124455;28;20118;-94
2023/02/15 07:20:36;;;;;;;45.63;24.77;;;;;;;-0.06;99.85;100066.66;5124425;28;20039;-94
2023/02/15 07:23:03;;;;;;;46.65;24.75;;;;;;;0.23;99.66;100087.75;5123741;28;20047;-94
2023/02/15 07:25:29;;;;;;;55.25;26.27;;;;;;;0.17;98.12;100078.84;5123019;28;20043;-94
2023/02/15 07:27:56;;;;;;;51.35;24.92;;;;;;;0.20;98.02;100065.88;5126813;28;20075;-94
2023/02/15 07:30:24;;;;;;;56.50;25.27;;;;;;;0.32;97.66;100081.09;5130410;28;20058;-94
2023/02/15 07:35:57;;;;;;;56.03;26.17;;;;;;;0.52;96.81;100073.94;5041156;28;20385;-96
2023/02/15 07:38:24;;;;;;;50.45;26.33;;;;;;;0.64;96.45;100064.72;5113197;28;20079;-95
2023/02/15 07:40:50;;;;;;;54.03;26.13;;;;;;;0.83;94.81;100077.59;5117400;28;20044;-93
2023/02/15 07:43:16;;;;;;;57.72;26.63;;;;;;;0.93;93.63;100063.06;5082441;28;20050;-95
2023/02/15 07:45:43;;;;;;;59.15;26.90;;;;;;;1.05;93.39;100066.06;5019251;28;20073;-93
2023/02/15 07:48:09;;;;;;;50.72;27.42;;;;;;;1.26;93.14;100075.44;5054610;28;20039;-94
2023/02/15 07:50:35;;;;;;;51.75;27.25;;;;;;;1.43;92.16;100076.84;5047847;28;20045;-94
2023/02/15 07:53:03;;;;;;;76.30;31.30;;;;;;;1.69;91.37;100085.50;5028208;28;20133;-95
2023/02/15 07:55:29;;;;;;;73.10;33.70;;;;;;;1.74;90.19;100068.19;5036036;28;20064;-94
2023/02/15 07:57:55;;;;;;;82.18;35.38;;;;;;;1.89;88.99;100079.94;5031289;28;20037;-95
2023/02/15 08:00:24;;;;;;;71.53;34.63;;;;;;;2.19;87.86;100095.66;5029578;28;20102;-93
2023/02/15 08:03:12;;;;;;;71.43;33.65;;;;;;;2.17;87.47;100063.25;5079828;28;20040;-94
2023/02/15 08:05:38;;;;;;;73.28;33.13;;;;;;;2.43;87.27;100084.97;5016492;28;20073;-94
2023/02/15 08:08:05;;;;;;;78.00;33.65;;;;;;;2.67;85.03;100089.97;5013051;28;20046;-94
2023/02/15 08:13:30;;;;;;;81.97;38.40;;;;;;;2.83;84.51;100064.97;5119378;27;20716;-94
2023/02/15 08:15:56;;;;;;;91.22;40.67;;;;;;;2.90;82.52;100066.03;5095215;28;20078;-94
2023/02/15 08:18:22;;;;;;;80.82;37.63;;;;;;;3.03;82.91;100075.97;5095609;28;20486;-94
2023/02/15 08:20:49;;;;;;;84.15;37.33;;;;;;;3.11;81.37;100053.41;5089655;28;20040;-94
2023/02/15 08:23:15;;;;;;;75.88;34.10;;;;;;;3.25;80.82;100066.84;5075527;28;20044;-95
2023/02/15 08:25:41;;;;;;;57.97;31.58;;;;;;;3.28;79.89;100056.44;5075863;28;20126;-93
2023/02/15 08:28:07;;;;;;;69.20;31.17;;;;;;;3.30;79.34;100067.88;5077183;28;20617;-94
2023/02/15 08:30:34;;;;;;;62.95;31.20;;;;;;;3.45;78.04;100070.84;5090647;28;20182;-94
2023/02/15 08:33:09;;;;;;;76.40;32.90;;;;;;;3.70;77.76;100100.31;5077542;28;20053;-93
2023/02/15 08:35:35;;;;;;;74.65;33.85;;;;;;;3.74;77.99;100081.09;5075767;28;20079;-95
2023/02/15 08:38:01;;;;;;;75.65;33.65;;;;;;;3.71;77.54;100049.50;5076233;28;20044;-93
2023/02/15 08:40:27;;;;;;;76.15;35.67;;;;;;;3.91;77.68;100061.28;5088537;28;20068;-93
2023/02/15 08:42:53;;;;;;;87.18;38.17;;;;;;;4.15;77.69;100081.06;5082280;28;20072;-94
2023/02/15 08:45:19;;;;;;;75.45;35.35;;;;;;;4.19;76.90;100051.31;5081373;28;20071;-93
2023/02/15 08:47:46;;;;;;;76.38;34.67;;;;;;;4.45;76.66;100074.63;5078717;28;20143;-94
2023/02/15 08:50:12;;;;;;;79.95;34.13;;;;;;;4.60;76.14;100080.19;5076800;28;20055;-96
2023/02/15 08:52:38;;;;;;;82.72;37.03;;;;;;;4.61;75.65;100063.50;5076414;28;20108;-94
2023/02/15 08:55:04;;;;;;;76.07;35.10;;;;;;;4.82;75.21;100078.81;5080013;28;20153;-93
2023/02/15 08:57:30;;;;;;;77.22;34.92;;;;;;;4.78;74.99;100052.38;5083469;28;20060;-93
2023/02/15 08:59:56;;;;;;;76.80;36.35;;;;;;;4.95;74.24;100069.34;5077798;28;20049;-95
2023/02/15 09:02:22;;;;;;;81.25;37.40;;;;;;;4.94;74.84;100051.75;5076196;28;20467;-92
2023/02/15 09:04:51;;;;;;;81.90;37.67;;;;;;;5.10;74.09;100053.78;5082082;28;20055;-93
2023/02/15 09:07:18;;;;;;;84.85;38.38;;;;;;;5.23;73.80;100056.63;5072124;28;20049;-94
2023/02/15 09:09:45;;;;;;;74.80;36.00;;;;;;;5.51;73.41;100079.91;5088274;28;20075;-94
2023/02/15 09:12:11;;;;;;;79.90;37.10;;;;;;;5.42;72.91;100063.03;5071405;28;20048;-94
2023/02/15 09:14:37;;;;;;;71.65;33.47;;;;;;;5.57;72.76;100079.06;5077427;28;20047;-93
2023/02/15 09:17:03;;;;;;;73.55;34.33;;;;;;;5.70;72.17;100069.56;5079954;28;20136;-93
2023/02/15 09:19:29;;;;;;;68.68;33.40;;;;;;;5.60;71.86;100068.59;5071573;28;20049;-94
2023/02/15 09:21:57;;;;;;;81.35;36.20;;;;;;;5.66;71.32;100047.56;5074583;28;20048;-92
2023/02/15 09:24:24;;;;;;;65.90;33.67;;;;;;;5.76;69.92;100043.28;5057696;28;20087;-94
2023/02/15 09:26:49;;;;;;;67.22;31.63;;;;;;;5.78;69.88;100070.56;5059182;28;20045;-93
2023/02/15 09:29:17;;;;;;;67.00;30.88;;;;;;;5.96;69.08;100073.50;5057124;28;20053;-93
2023/02/15 09:31:45;;;;;;;73.57;35.08;;;;;;;5.72;69.10;100054.66;5065402;28;20049;-93
2023/02/15 09:34:12;;;;;;;68.25;32.67;;;;;;;5.85;69.14;100046.00;5061208;28;20087;-94
2023/02/15 09:36:39;;;;;;;107.63;41.15;;;;;;;6.16;68.64;100051.72;5059478;28;20036;-95
2023/02/15 09:39:10;;;;;;;95.63;39.80;;;;;;;6.44;68.36;100075.78;5056307;28;20045;-94
2023/02/15 09:41:58;;;;;;;69.20;33.40;;;;;;;6.47;66.64;100062.63;5063969;28;20065;-91
2023/02/15 09:44:33;;;;;;;77.30;32.90;;;;;;;6.48;67.41;100044.09;5055302;28;20037;-94
2023/02/15 09:47:30;;;;;;;68.63;33.00;;;;;;;6.87;65.62;100065.63;5056218;28;20041;-94
2023/02/15 09:50:06;;;;;;;97.22;41.20;;;;;;;7.02;65.37;100065.75;5062061;28;20037;-94
2023/02/15 09:52:48;;;;;;;92.40;36.55;;;;;;;7.23;64.38;100083.56;5056261;28;20045;-94
2023/02/15 09:55:28;;;;;;;77.32;34.08;;;;;;;7.16;63.55;100073.81;5054262;28;20628;-94
2023/02/15 09:58:02;;;;;;;64.18;32.70;;;;;;;7.19;65.05;100071.19;5049823;28;20036;-94
2023/02/15 10:00:37;;;;;;;63.72;33.03;;;;;;;7.27;64.78;100065.97;5068958;28;20136;-96
2023/02/15 10:03:26;;;;;;;92.68;38.92;;;;;;;7.40;64.84;100058.09;5055482;28;20040;-94
2023/02/15 10:06:15;;;;;;;78.90;34.90;;;;;;;7.51;64.49;100068.75;5054766;28;20370;-94
2023/02/15 10:09:00;;;;;;;69.93;34.70;;;;;;;7.68;64.28;100075.91;5059892;28;20037;-94
2023/02/15 10:11:43;;;;;;;80.78;36.22;;;;;;;7.79;64.02;100066.25;5054525;28;20072;-95
2023/02/15 10:14:24;;;;;;;79.93;38.70;;;;;;;7.78;64.36;100040.66;5049843;28;20491;-93
2023/02/15 10:17:02;;;;;;;92.07;37.85;;;;;;;7.94;63.55;100055.75;5058455;28;20090;-94
2023/02/15 10:19:39;;;;;;;84.18;40.58;;;;;;;8.07;63.96;100048.72;5054718;28;20036;-94
2023/02/15 10:22:17;;;;;;;83.72;40.47;;;;;;;8.14;63.77;100045.22;5059956;28;20513;-95
2023/02/15 10:24:58;;;;;;;91.38;43.47;;;;;;;8.34;63.64;100058.50;5049459;28;20044;-93
2023/02/15 10:27:30;;;;;;;92.47;43.67;;;;;;;8.47;64.03;100053.28;5051450;28;20437;-95
2023/02/15 10:30:08;;;;;;;99.38;42.85;;;;;;;8.50;63.43;100032.06;5070591;28;20052;-92
2023/02/15 10:32:42;;;;;;;91.13;44.77;;;;;;;8.68;64.24;100034.75;5062238;28;20037;-93
2023/02/15 10:35:18;;;;;;;104.13;45.65;;;;;;;8.87;63.45;100046.28;5054028;28;20282;-96
2023/02/15 10:37:59;;;;;;;106.20;47.50;;;;;;;8.82;63.57;100025.03;5054387;28;20045;-94
2023/02/15 10:40:33;;;;;;;102.43;46.97;;;;;;;8.93;62.80;100016.19;5055986;28;20544;-93
2023/02/15 10:43:13;;;;;;;92.22;44.45;;;;;;;9.12;62.44;100049.78;5049735;28;20029;-95
2023/02/15 10:45:51;;;;;;;104.38;46.83;;;;;;;9.03;62.74;100016.19;5066494;28;20044;-95
2023/02/15 10:48:31;;;;;;;107.28;47.00;;;;;;;9.07;62.71;100022.38;5057339;28;20405;-94
2023/02/15 10:50:59;;;;;;;99.80;46.25;;;;;;;9.06;63.13;100009.97;5054185;28;20063;-93
2023/02/15 10:53:43;;;;;;;104.43;46.60;;;;;;;9.06;63.31;100009.97;5054347;28;20136;-94
2023/02/15 10:56:19;;;;;;;100.93;47.38;;;;;;;9.08;63.62;100016.19;5054469;28;20041;-94
2023/02/15 10:59:19;;;;;;;104.05;46.88;;;;;;;9.08;63.52;100013.53;5054319;28;20472;-95
2023/02/15 11:01:51;;;;;;;105.00;48.80;;;;;;;9.11;64.14;100010.88;5031652;28;20061;-94
2023/02/15 11:04:45;;;;;;;107.25;48.47;;;;;;;9.23;63.85;100015.28;5053660;28;20055;-94
2023/02/15 11:07:17;;;;;;;102.97;48.83;;;;;;;9.24;63.84;99999.34;5055826;28;20052;-93
2023/02/15 11:09:47;;;;;;;102.72;46.75;;;;;;;9.24;64.32;99987.88;5049278;28;20071;-93
2023/02/15 11:12:19;;;;;;;99.22;47.97;;;;;;;9.28;64.20;100010.81;5065161;28;20049;-93
2023/02/15 11:14:54;;;;;;;97.85;47.95;;;;;;;9.30;64.37;99978.97;5053952;28;20125;-93
2023/02/15 11:17:26;;;;;;;92.95;45.33;;;;;;;9.45;63.97;99985.16;5070273;28;20111;-93
2023/02/15 11:20:02;;;;;;;100.72;46.75;;;;;;;9.56;63.81;99989.53;5065955;28;20041;-94
2023/02/15 11:22:30;;;;;;;117.78;53.45;;;;;;;9.51;63.89;99946.19;5035338;28;20041;-93
2023/02/15 11:24:58;;;;;;;98.97;47.35;;;;;;;9.75;63.00;99974.41;5034237;28;20073;-95
2023/02/15 11:27:28;;;;;;;100.80;46.78;;;;;;;9.82;63.10;99965.50;5044959;28;20072;-95
2023/02/15 11:30:00;;;;;;;100.68;47.55;;;;;;;9.72;62.39;99932.81;5054223;28;20132;-94
2023/02/15 11:32:29;;;;;;;88.40;45.35;;;;;;;9.77;61.95;99924.81;5034475;28;20061;-94
2023/02/15 11:35:00;;;;;;;95.25;44.67;;;;;;;9.85;61.75;99936.28;5050858;28;20095;-95
2023/02/15 11:37:35;;;;;;;103.30;48.33;;;;;;;10.01;61.01;99924.66;5058775;28;20048;-95
2023/02/15 11:40:03;;;;;;;104.35;47.25;;;;;;;10.28;61.28;99946.66;5055054;28;20045;-94
2023/02/15 11:42:31;;;;;;;99.75;45.47;;;;;;;10.31;62.88;99935.16;5060745;28;20065;-94
2023/02/15 11:45:04;;;;;;;89.65;44.22;;;;;;;10.44;59.83;99934.16;5053362;28;20052;-94
2023/02/15 11:47:30;;;;;;;93.00;45.55;;;;;;;10.44;60.10;99932.38;5056884;28;20040;-94
2023/02/15 11:49:57;;;;;;;96.03;45.50;;;;;;;10.59;60.11;99938.47;5066964;28;20047;-94
2023/02/15 11:52:23;;;;;;;83.65;40.17;;;;;;;10.44;59.28;99903.13;5059001;28;20033;-93
2023/02/15 11:54:51;;;;;;;87.25;42.63;;;;;;;10.60;60.33;99913.63;5053421;28;20063;-93